createdAt,value
2018-02-18T00:00:35.373Z,99658.44
2018-02-18T00:03:06.158Z,99666.04
2018-02-18T00:05:37.965Z,99666.34
2018-02-18T00:08:08.786Z,99672.52
2018-02-18T00:10:40.561Z,99673.12
2018-02-18T00:13:11.951Z,99671.53
2018-02-18T00:15:43.303Z,99682.94
2018-02-18T00:18:14.897Z,99684.12
2018-02-18T00:20:46.312Z,99685.06
2018-02-18T00:23:17.170Z,99684.01
2018-02-18T00:25:48.490Z,99679.64
2018-02-18T00:28:19.359Z,99686.63
2018-02-18T00:30:51.764Z,99679.44
2018-02-18T00:33:23.057Z,99690.89
2018-02-18T00:35:54.600Z,99693.67
2018-02-18T00:38:26.307Z,99691.55
2018-02-18T00:40:57.765Z,99695.31
2018-02-18T00:43:28.872Z,99698.45
2018-02-18T00:45:59.714Z,99697.41
2018-02-18T00:48:31.428Z,99702.02
2018-02-18T00:51:03.132Z,99705.57
2018-02-18T00:53:34.481Z,99705.89
2018-02-18T00:56:06.282Z,99705.83
2018-02-18T00:58:37.481Z,99714.14
2018-02-18T01:01:08.772Z,99714.62
2018-02-18T01:03:40.457Z,99713.69
2018-02-18T01:06:12.017Z,99713.25
2018-02-18T01:08:43.913Z,99714.97
2018-02-18T01:11:14.977Z,99718.13
2018-02-18T01:13:46.252Z,99720.14
2018-02-18T01:16:17.516Z,99715.68
2018-02-18T01:18:48.328Z,99725.48
2018-02-18T01:21:20.169Z,99722.79
2018-02-18T01:23:51.957Z,99721.89
2018-02-18T01:26:23.353Z,99727.48
2018-02-18T01:28:55.241Z,99727.53
2018-02-18T01:31:26.844Z,99726.69
2018-02-18T01:33:58.201Z,99723.34
2018-02-18T01:36:29.618Z,99724.40
2018-02-18T01:39:01.412Z,99731.91
2018-02-18T01:41:32.656Z,99733.00
2018-02-18T01:44:04.529Z,99732.42
2018-02-18T01:46:35.669Z,99730.47
2018-02-18T01:49:06.873Z,99731.48
2018-02-18T01:51:38.281Z,99734.91
2018-02-18T01:54:09.589Z,99738.59
2018-02-18T01:56:40.809Z,99732.55
2018-02-18T01:59:12.292Z,99732.33
2018-02-18T02:01:43.705Z,99737.41
2018-02-18T02:04:15.244Z,99736.70
2018-02-18T02:06:47.285Z,99732.20
2018-02-18T02:09:18.828Z,99732.30
2018-02-18T02:11:50.202Z,99734.16
2018-02-18T02:14:22.481Z,99730.08
2018-02-18T02:16:54.117Z,99729.45
2018-02-18T02:19:25.692Z,99732.62
2018-02-18T02:21:57.601Z,99730.44
2018-02-18T02:24:29.197Z,99732.95
2018-02-18T02:27:00.833Z,99735.27
2018-02-18T02:29:32.140Z,99733.66
2018-02-18T02:32:03.685Z,99741.77
2018-02-18T02:34:35.804Z,99737.45
2018-02-18T02:37:07.536Z,99740.44
2018-02-18T02:39:39.222Z,99744.11
2018-02-18T02:42:10.524Z,99746.70
2018-02-18T02:44:42.085Z,99736.81
2018-02-18T02:47:13.496Z,99745.44
2018-02-18T02:49:45.273Z,99740.75
2018-02-18T02:52:17.209Z,99741.95
2018-02-18T02:54:48.512Z,99741.58
2018-02-18T02:57:19.954Z,99746.51
2018-02-18T02:59:52.304Z,99746.48
2018-02-18T03:02:23.661Z,99737.03
2018-02-18T03:04:54.812Z,99742.67
2018-02-18T03:07:26.548Z,99745.42
2018-02-18T03:09:58.040Z,99740.62
2018-02-18T03:12:29.519Z,99743.59
2018-02-18T03:15:01.352Z,99738.97
2018-02-18T03:17:33.297Z,99742.43
2018-02-18T03:20:05.148Z,99745.97
2018-02-18T03:22:35.965Z,99740.42
2018-02-18T03:25:07.347Z,99739.31
2018-02-18T03:27:39.239Z,99735.80
2018-02-18T03:30:11.058Z,99733.77
2018-02-18T03:32:42.618Z,99732.55
2018-02-18T03:35:13.945Z,99728.83
2018-02-18T03:37:45.845Z,99736.02
2018-02-18T03:40:17.364Z,99736.45
2018-02-18T03:42:48.634Z,99739.72
2018-02-18T03:45:20.382Z,99744.33
2018-02-18T03:47:51.809Z,99739.25
2018-02-18T03:50:23.369Z,99741.55
2018-02-18T03:52:55.099Z,99741.21
2018-02-18T03:55:26.712Z,99742.13
2018-02-18T03:57:58.044Z,99742.13
2018-02-18T04:00:29.643Z,99746.67
2018-02-18T04:03:00.942Z,99738.00
2018-02-18T04:05:32.460Z,99743.62
2018-02-18T04:08:03.797Z,99744.66
2018-02-18T04:10:35.517Z,99745.66
2018-02-18T04:13:07.013Z,99749.17
2018-02-18T04:15:39.236Z,99748.22
2018-02-18T04:18:11.093Z,99746.39
2018-02-18T04:20:42.912Z,99755.36
2018-02-18T04:23:14.528Z,99752.22
2018-02-18T04:25:45.892Z,99752.77
2018-02-18T04:28:17.562Z,99752.20
2018-02-18T04:30:49.489Z,99752.69
2018-02-18T04:33:20.916Z,99756.73
2018-02-18T04:35:52.800Z,99761.31
2018-02-18T04:38:24.330Z,99760.66
2018-02-18T04:40:55.769Z,99760.14
2018-02-18T04:43:26.856Z,99761.63
2018-02-18T04:45:58.008Z,99761.77
2018-02-18T04:48:29.414Z,99767.55
2018-02-18T04:51:00.909Z,99765.95
2018-02-18T04:53:32.635Z,99773.20
2018-02-18T04:56:03.992Z,99766.55
2018-02-18T04:58:35.348Z,99771.42
2018-02-18T05:01:06.612Z,99775.11
2018-02-18T05:03:38.008Z,99770.91
2018-02-18T05:06:09.073Z,99782.77
2018-02-18T05:08:41.335Z,99780.77
2018-02-18T05:11:12.916Z,99781.03
2018-02-18T05:13:44.026Z,99780.13
2018-02-18T05:16:15.877Z,99779.33
2018-02-18T05:18:47.055Z,99785.14
2018-02-18T05:21:18.201Z,99778.97
2018-02-18T05:23:49.568Z,99777.66
2018-02-18T05:26:21.004Z,99778.53
2018-02-18T05:28:52.319Z,99783.47
2018-02-18T05:31:24.514Z,99787.73
2018-02-18T05:33:55.992Z,99789.51
2018-02-18T05:36:27.661Z,99790.53
2018-02-18T05:38:59.685Z,99792.20
2018-02-18T05:41:30.824Z,99795.53
2018-02-18T05:44:02.818Z,99801.73
2018-02-18T05:46:34.338Z,99798.58
2018-02-18T05:49:05.340Z,99802.20
2018-02-18T05:51:37.216Z,99798.28
2018-02-18T05:54:08.488Z,99802.36
2018-02-18T05:56:40.328Z,99804.30
2018-02-18T05:59:11.585Z,99800.25
2018-02-18T06:01:43.142Z,99807.15
2018-02-18T06:04:14.453Z,99807.20
2018-02-18T06:06:45.572Z,99818.69
2018-02-18T06:09:16.729Z,99813.91
2018-02-18T06:11:48.156Z,99822.44
2018-02-18T06:14:19.825Z,99820.70
2018-02-18T06:16:51.024Z,99820.05
2018-02-18T06:19:22.583Z,99827.46
2018-02-18T06:21:54.286Z,99829.04
2018-02-18T06:24:27.317Z,99825.50
2018-02-18T06:26:58.884Z,99825.83
2018-02-18T06:29:30.850Z,99832.55
2018-02-18T06:32:02.737Z,99833.27
2018-02-18T06:34:34.250Z,99840.02
2018-02-18T06:37:05.459Z,99839.14
2018-02-18T06:39:38.791Z,99839.18
2018-02-18T06:42:10.149Z,99843.66
2018-02-18T06:44:41.772Z,99845.14
2018-02-18T06:47:13.065Z,99846.19
2018-02-18T06:49:44.639Z,99852.42
2018-02-18T06:52:16.347Z,99855.61
2018-02-18T06:54:47.857Z,99857.45
2018-02-18T06:57:20.807Z,99855.21
2018-02-18T06:59:54.100Z,99855.25
2018-02-18T07:02:29.705Z,99860.33
2018-02-18T07:05:00.932Z,99859.95
2018-02-18T07:07:32.452Z,99867.33
2018-02-18T07:10:04.108Z,99861.86
2018-02-18T07:12:35.292Z,99871.95
2018-02-18T07:15:06.816Z,99872.04
2018-02-18T07:17:38.475Z,99865.41
2018-02-18T07:20:10.577Z,99871.14
2018-02-18T07:22:41.876Z,99866.63
2018-02-18T07:25:12.690Z,99876.27
2018-02-18T07:27:44.036Z,99873.13
2018-02-18T07:30:15.730Z,99868.97
2018-02-18T07:32:47.592Z,99872.78
2018-02-18T07:35:19.000Z,99874.73
2018-02-18T07:37:50.621Z,99873.36
2018-02-18T07:40:22.093Z,99876.11
2018-02-18T07:42:53.436Z,99876.87
2018-02-18T07:45:25.353Z,99875.73
2018-02-18T07:47:57.113Z,99880.74
2018-02-18T07:50:29.601Z,99882.38
2018-02-18T07:53:00.725Z,99872.51
2018-02-18T07:55:32.133Z,99869.08
2018-02-18T07:58:03.596Z,99872.16
2018-02-18T08:00:34.680Z,99878.80
2018-02-18T08:03:05.433Z,99868.50
2018-02-18T08:05:36.917Z,99867.67
2018-02-18T08:08:08.519Z,99869.97
2018-02-18T08:10:39.574Z,99870.36
2018-02-18T08:13:10.417Z,99868.03
2018-02-18T08:15:42.053Z,99875.62
2018-02-18T08:18:14.531Z,99867.64
2018-02-18T08:20:46.184Z,99866.13
2018-02-18T08:23:17.644Z,99869.11
2018-02-18T08:25:49.372Z,99868.50
2018-02-18T08:28:21.808Z,99864.52
2018-02-18T08:30:52.912Z,99868.56
2018-02-18T08:33:24.159Z,99873.30
2018-02-18T08:35:55.876Z,99874.38
2018-02-18T08:38:27.280Z,99872.20
2018-02-18T08:40:58.869Z,99871.05
2018-02-18T08:43:29.793Z,99871.56
2018-02-18T08:46:01.864Z,99870.44
2018-02-18T08:48:32.966Z,99870.56
2018-02-18T08:51:04.335Z,99872.84
2018-02-18T08:53:35.941Z,99874.58
2018-02-18T08:56:07.327Z,99873.22
2018-02-18T08:58:38.109Z,99871.28
2018-02-18T09:01:10.247Z,99873.63
2018-02-18T09:03:41.548Z,99877.41
2018-02-18T09:06:13.532Z,99882.11
2018-02-18T09:08:44.693Z,99880.71
2018-02-18T09:11:18.996Z,99876.15
2018-02-18T09:13:50.308Z,99874.41
2018-02-18T09:16:21.209Z,99877.48
2018-02-18T09:18:52.597Z,99880.08
2018-02-18T09:21:23.449Z,99883.41
2018-02-18T09:23:54.181Z,99876.00
2018-02-18T09:26:25.017Z,99874.78
2018-02-18T09:28:57.093Z,99877.39
2018-02-18T09:31:28.594Z,99883.21
2018-02-18T09:33:59.444Z,99888.94
2018-02-18T09:36:30.314Z,99887.61
2018-02-18T09:39:01.093Z,99893.66
2018-02-18T09:41:32.673Z,99895.14
2018-02-18T09:44:06.144Z,99895.80
2018-02-18T09:46:37.337Z,99897.38
2018-02-18T09:49:08.684Z,99900.69
2018-02-18T09:51:39.393Z,99906.36
2018-02-18T09:54:10.209Z,99917.05
2018-02-18T09:56:42.385Z,99906.48
2018-02-18T09:59:13.264Z,99910.08
2018-02-18T10:01:45.079Z,99914.20
2018-02-18T10:04:15.844Z,99900.50
2018-02-18T10:06:46.705Z,99906.47
2018-02-18T10:09:18.128Z,99902.73
2018-02-18T10:11:49.450Z,99907.16
2018-02-18T10:14:20.315Z,99912.59
2018-02-18T10:16:52.005Z,99911.74
2018-02-18T10:19:22.834Z,99909.46
2018-02-18T10:21:53.968Z,99903.89
2018-02-18T10:24:25.376Z,99909.48
2018-02-18T10:26:57.226Z,99912.13
2018-02-18T10:29:28.748Z,99909.80
2018-02-18T10:32:03.921Z,99907.98
2018-02-18T10:34:34.953Z,99903.75
2018-02-18T10:37:05.805Z,99909.72
2018-02-18T10:39:36.649Z,99907.09
2018-02-18T10:42:07.540Z,99904.46
2018-02-18T10:44:38.357Z,99900.98
2018-02-18T10:47:15.985Z,99905.84
2018-02-18T10:49:48.141Z,99908.86
2018-02-18T10:52:20.176Z,99912.22
2018-02-18T10:54:57.117Z,99902.52
2018-02-18T10:57:28.244Z,99906.96
2018-02-18T10:59:59.408Z,99906.45
2018-02-18T11:02:30.560Z,99909.03
2018-02-18T11:05:01.688Z,99902.22
2018-02-18T11:07:33.258Z,99905.27
2018-02-18T11:10:04.473Z,99903.62
2018-02-18T11:12:35.627Z,99904.94
2018-02-18T11:15:06.507Z,99899.53
2018-02-18T11:17:37.316Z,99895.77
2018-02-18T11:20:08.489Z,99901.70
2018-02-18T11:22:39.672Z,99894.52
2018-02-18T11:25:11.448Z,99901.53
2018-02-18T11:27:43.312Z,99904.13
2018-02-18T11:30:14.134Z,99901.36
2018-02-18T11:32:45.980Z,99907.97
2018-02-18T11:35:17.070Z,99904.73
2018-02-18T11:37:49.124Z,99907.13
2018-02-18T11:40:20.914Z,99902.47
2018-02-18T11:42:54.733Z,99902.08
2018-02-18T11:45:26.325Z,99891.56
2018-02-18T11:47:57.133Z,99890.11
2018-02-18T11:50:28.596Z,99890.00
2018-02-18T11:53:00.777Z,99893.68
2018-02-18T11:55:32.032Z,99883.21
2018-02-18T11:58:02.886Z,99883.02
2018-02-18T12:00:33.659Z,99883.45
2018-02-18T12:03:04.946Z,99880.69
2018-02-18T12:05:35.780Z,99876.46
2018-02-18T12:08:07.080Z,99880.96
2018-02-18T12:10:38.163Z,99881.85
2018-02-18T12:13:08.953Z,99877.44
2018-02-18T12:15:40.353Z,99875.14
2018-02-18T12:18:11.835Z,99871.34
2018-02-18T12:20:42.926Z,99869.60
2018-02-18T12:23:13.792Z,99872.45
2018-02-18T12:25:44.896Z,99861.55
2018-02-18T12:28:15.693Z,99864.49
2018-02-18T12:30:46.815Z,99859.70
2018-02-18T12:33:17.669Z,99863.39
2018-02-18T12:35:48.948Z,99854.22
2018-02-18T12:38:20.078Z,99852.94
2018-02-18T12:40:50.893Z,99855.47
2018-02-18T12:43:21.635Z,99851.32
2018-02-18T12:45:52.741Z,99852.80
2018-02-18T12:48:23.811Z,99846.57
2018-02-18T12:50:54.657Z,99846.58
2018-02-18T12:53:25.886Z,99851.05
2018-02-18T12:55:56.759Z,99848.33
2018-02-18T12:58:27.605Z,99854.63
2018-02-18T13:01:00.487Z,99849.45
2018-02-18T13:03:32.336Z,99847.63
2018-02-18T13:06:05.736Z,99849.41
2018-02-18T13:08:36.958Z,99846.03
2018-02-18T13:11:08.003Z,99844.13
2018-02-18T13:13:39.180Z,99846.34
2018-02-18T13:16:10.304Z,99845.75
2018-02-18T13:18:41.462Z,99845.20
2018-02-18T13:21:12.449Z,99846.75
2018-02-18T13:23:43.641Z,99848.36
2018-02-18T13:26:14.732Z,99841.92
2018-02-18T13:28:45.669Z,99838.16
2018-02-18T13:31:16.795Z,99842.66
2018-02-18T13:33:48.117Z,99837.76
2018-02-18T13:36:19.184Z,99821.20
2018-02-18T13:38:49.971Z,99825.66
2018-02-18T13:41:21.112Z,99824.58
2018-02-18T13:43:52.477Z,99816.70
2018-02-18T13:46:23.490Z,99819.84
2018-02-18T13:48:54.685Z,99822.13
2018-02-18T13:51:25.879Z,99825.39
2018-02-18T13:53:56.753Z,99816.78
2018-02-18T13:56:27.685Z,99808.72
2018-02-18T13:58:58.796Z,99808.03
2018-02-18T14:01:29.676Z,99812.22
2018-02-18T14:04:00.536Z,99810.30
2018-02-18T14:06:32.354Z,99805.58
2018-02-18T14:09:03.186Z,99805.34
2018-02-18T14:11:38.345Z,99800.52
2018-02-18T14:14:09.557Z,99810.59
2018-02-18T14:16:40.445Z,99802.37
2018-02-18T14:19:11.844Z,99798.45
2018-02-18T14:21:42.975Z,99795.87
2018-02-18T14:24:13.838Z,99790.06
2018-02-18T14:26:48.853Z,99777.06
2018-02-18T14:29:20.010Z,99776.05
2018-02-18T14:31:50.973Z,99764.17
2018-02-18T14:34:21.841Z,99768.69
2018-02-18T14:36:52.774Z,99764.05
2018-02-18T14:39:23.620Z,99767.11
2018-02-18T14:44:10.926Z,99769.75
2018-02-18T14:46:51.870Z,99771.14
2018-02-18T14:51:35.081Z,99772.16
2018-02-18T14:54:16.210Z,99768.23
2018-02-18T14:56:48.126Z,99767.23
2018-02-18T14:59:18.952Z,99770.72
2018-02-18T15:01:49.818Z,99766.41
2018-02-18T15:04:20.908Z,99768.29
2018-02-18T15:06:51.947Z,99768.12
2018-02-18T15:09:22.764Z,99763.80
2018-02-18T15:11:53.719Z,99763.38
2018-02-18T15:14:24.647Z,99760.12
2018-02-18T15:16:55.944Z,99761.84
2018-02-18T15:19:26.754Z,99754.70
2018-02-18T15:21:57.628Z,99750.64
2018-02-18T15:24:29.164Z,99745.52
2018-02-18T15:26:59.899Z,99747.84
2018-02-18T15:29:30.750Z,99752.42
2018-02-18T15:32:02.657Z,99749.45
2018-02-18T15:34:33.552Z,99752.73
2018-02-18T15:37:04.657Z,99741.41
2018-02-18T15:39:35.478Z,99747.88
2018-02-18T15:42:06.738Z,99744.91
2018-02-18T15:44:37.883Z,99748.23
2018-02-18T15:47:08.690Z,99738.52
2018-02-18T15:49:40.809Z,99741.84
2018-02-18T15:52:11.702Z,99743.31
2018-02-18T15:54:43.541Z,99739.79
2018-02-18T15:57:14.706Z,99726.55
2018-02-18T15:59:46.001Z,99729.95
2018-02-18T16:02:17.937Z,99728.09
2018-02-18T16:04:49.184Z,99730.07
2018-02-18T16:07:20.633Z,99733.52
2018-02-18T16:09:51.481Z,99723.80
2018-02-18T16:12:22.320Z,99731.82
2018-02-18T16:14:53.178Z,99727.91
2018-02-18T16:17:24.617Z,99727.64
2018-02-18T16:19:55.531Z,99723.73
2018-02-18T16:22:26.410Z,99721.95
2018-02-18T16:24:57.668Z,99720.82
2018-02-18T16:27:28.523Z,99715.31
2018-02-18T16:29:59.645Z,99717.27
2018-02-18T16:32:30.550Z,99714.71
2018-02-18T16:35:01.287Z,99715.38
2018-02-18T16:37:32.387Z,99712.94
2018-02-18T16:40:03.241Z,99712.09
2018-02-18T16:42:34.068Z,99710.30
2018-02-18T16:45:05.824Z,99707.47
2018-02-18T16:47:36.641Z,99707.95
2018-02-18T16:50:07.465Z,99710.02
2018-02-18T16:52:38.564Z,99712.79
2018-02-18T16:55:09.548Z,99712.17
2018-02-18T16:57:40.378Z,99714.70
2018-02-18T17:00:11.645Z,99716.59
2018-02-18T17:02:42.468Z,99718.11
2018-02-18T17:05:13.565Z,99717.69
2018-02-18T17:07:44.465Z,99715.19
2018-02-18T17:10:15.460Z,99710.38
2018-02-18T17:12:46.979Z,99706.06
2018-02-18T17:15:17.873Z,99712.85
2018-02-18T17:17:52.774Z,99706.64
2018-02-18T17:20:24.094Z,99704.20
2018-02-18T17:22:55.409Z,99709.86
2018-02-18T17:25:26.505Z,99706.61
2018-02-18T17:27:57.558Z,99703.84
2018-02-18T17:30:28.380Z,99703.10
2018-02-18T17:32:59.468Z,99700.54
2018-02-18T17:35:30.237Z,99703.76
2018-02-18T17:38:01.061Z,99708.69
2018-02-18T17:40:32.139Z,99703.97
2018-02-18T17:43:03.593Z,99701.05
2018-02-18T17:45:34.454Z,99696.89
2018-02-18T17:48:05.622Z,99701.88
2018-02-18T17:50:36.453Z,99696.17
2018-02-18T17:53:08.218Z,99687.78
2018-02-18T17:55:39.132Z,99690.05
2018-02-18T17:58:09.978Z,99682.14
2018-02-18T18:00:41.369Z,99680.08
2018-02-18T18:03:12.165Z,99681.11
2018-02-18T18:05:43.819Z,99683.64
2018-02-18T18:08:15.074Z,99683.39
2018-02-18T18:10:45.884Z,99681.53
2018-02-18T18:13:16.737Z,99680.16
2018-02-18T18:15:47.856Z,99682.21
2018-02-18T18:18:19.076Z,99680.68
2018-02-18T18:20:50.173Z,99678.27
2018-02-18T18:23:20.971Z,99679.16
2018-02-18T18:25:52.216Z,99682.81
2018-02-18T18:28:23.381Z,99672.75
2018-02-18T18:30:54.732Z,99667.23
2018-02-18T18:33:25.593Z,99664.19
2018-02-18T18:35:57.215Z,99662.15
2018-02-18T18:38:29.120Z,99664.86
2018-02-18T18:40:59.926Z,99668.19
2018-02-18T18:43:31.011Z,99666.63
2018-02-18T18:46:01.740Z,99668.88
2018-02-18T18:48:32.893Z,99663.67
2018-02-18T18:51:03.698Z,99669.09
2018-02-18T18:53:34.474Z,99666.05
2018-02-18T18:56:05.625Z,99667.98
2018-02-18T18:58:36.309Z,99664.86
2018-02-18T19:01:07.220Z,99667.34
2018-02-18T19:03:38.244Z,99663.89
2018-02-18T19:06:09.571Z,99667.70
2018-02-18T19:08:40.369Z,99663.84
2018-02-18T19:11:11.536Z,99650.83
2018-02-18T19:13:42.363Z,99658.97
2018-02-18T19:16:13.665Z,99650.42
2018-02-18T19:18:45.440Z,99654.38
2018-02-18T19:21:16.976Z,99652.61
2018-02-18T19:23:48.087Z,99647.69
2018-02-18T19:26:18.907Z,99645.25
2018-02-18T19:28:49.683Z,99641.77
2018-02-18T19:31:20.781Z,99645.09
2018-02-18T19:33:51.616Z,99646.34
2018-02-18T19:36:22.388Z,99643.22
2018-02-18T19:38:53.404Z,99636.04
2018-02-18T19:41:24.147Z,99638.53
2018-02-18T19:43:54.981Z,99638.06
2018-02-18T19:46:26.132Z,99642.75
2018-02-18T19:48:56.890Z,99643.05
2018-02-18T19:51:27.733Z,99638.39
2018-02-18T19:53:59.245Z,99648.75
2018-02-18T19:56:30.072Z,99643.67
2018-02-18T19:59:01.623Z,99642.52
2018-02-18T20:01:32.477Z,99640.95
2018-02-18T20:04:03.411Z,99632.89
2018-02-18T20:06:34.500Z,99631.88
2018-02-18T20:09:05.658Z,99632.27
2018-02-18T20:11:36.849Z,99637.39
2018-02-18T20:14:08.227Z,99632.30
2018-02-18T20:16:39.043Z,99632.62
2018-02-18T20:19:09.953Z,99633.74
2018-02-18T20:21:41.113Z,99630.98
2018-02-18T20:24:12.012Z,99627.19
2018-02-18T20:26:42.937Z,99632.30
2018-02-18T20:29:13.865Z,99632.40
2018-02-18T20:31:44.650Z,99631.13
2018-02-18T20:34:15.676Z,99626.31
2018-02-18T20:36:47.061Z,99624.78
2018-02-18T20:39:17.965Z,99618.69
2018-02-18T20:41:49.139Z,99614.74
2018-02-18T20:44:19.982Z,99617.28
2018-02-18T20:46:50.783Z,99615.52
2018-02-18T20:49:22.194Z,99620.42
2018-02-18T20:51:53.036Z,99618.54
2018-02-18T20:54:23.872Z,99619.87
2018-02-18T20:56:55.658Z,99612.12
2018-02-18T20:59:31.241Z,99616.34
2018-02-18T21:02:02.425Z,99615.31
2018-02-18T21:04:33.212Z,99608.93
2018-02-18T21:07:04.189Z,99617.41
2018-02-18T21:09:35.296Z,99616.62
2018-02-18T21:12:06.101Z,99611.09
2018-02-18T21:14:37.273Z,99609.78
2018-02-18T21:17:08.158Z,99615.40
2018-02-18T21:19:39.032Z,99606.00
2018-02-18T21:22:10.142Z,99611.69
2018-02-18T21:24:40.977Z,99609.50
2018-02-18T21:27:11.823Z,99611.68
2018-02-18T21:29:42.916Z,99607.38
2018-02-18T21:32:13.760Z,99605.72
2018-02-18T21:34:44.610Z,99603.73
2018-02-18T21:37:15.748Z,99602.61
2018-02-18T21:39:46.673Z,99606.45
2018-02-18T21:42:17.481Z,99599.72
2018-02-18T21:44:48.553Z,99599.55
2018-02-18T21:47:19.343Z,99606.67
2018-02-18T21:49:50.405Z,99598.64
2018-02-18T21:52:21.282Z,99602.48
2018-02-18T21:54:53.141Z,99601.59
2018-02-18T21:57:24.937Z,99598.88
2018-02-18T21:59:56.153Z,99605.16
2018-02-18T22:02:26.956Z,99601.72
2018-02-18T22:04:58.117Z,99593.12
2018-02-18T22:07:28.917Z,99592.83
2018-02-18T22:09:59.717Z,99591.63
2018-02-18T22:12:30.845Z,99589.52
2018-02-18T22:15:01.641Z,99585.31
2018-02-18T22:17:32.640Z,99584.78
2018-02-18T22:20:03.413Z,99588.05
2018-02-18T22:22:34.337Z,99583.03
2018-02-18T22:25:05.861Z,99577.73
2018-02-18T22:27:36.693Z,99583.62
2018-02-18T22:30:07.818Z,99575.58
2018-02-18T22:32:38.636Z,99574.20
2018-02-18T22:35:09.951Z,99578.38
2018-02-18T22:37:41.496Z,99570.49
2018-02-18T22:40:12.308Z,99565.29
2018-02-18T22:42:43.141Z,99563.45
2018-02-18T22:45:14.217Z,99562.05
2018-02-18T22:47:45.613Z,99562.56
2018-02-18T22:50:17.956Z,99559.23
2018-02-18T22:52:49.592Z,99550.67
2018-02-18T22:55:20.837Z,99552.11
2018-02-18T22:57:52.516Z,99549.09
2018-02-18T23:00:23.409Z,99549.16
2018-02-18T23:02:54.320Z,99547.78
2018-02-18T23:05:29.227Z,99543.71
2018-02-18T23:08:00.973Z,99529.45
2018-02-18T23:10:31.892Z,99526.84
2018-02-18T23:13:03.168Z,99528.73
2018-02-18T23:15:33.889Z,99524.99
2018-02-18T23:18:05.993Z,99524.20
2018-02-18T23:20:45.085Z,99526.84
2018-02-18T23:23:16.161Z,99521.07
2018-02-18T23:25:47.484Z,99520.36
2018-02-18T23:28:18.676Z,99513.32
2018-02-18T23:30:49.610Z,99513.69
2018-02-18T23:33:21.204Z,99511.08
2018-02-18T23:35:53.120Z,99499.15
2018-02-18T23:38:23.948Z,99499.98
2018-02-18T23:40:54.774Z,99501.50
2018-02-18T23:43:26.737Z,99489.63
2018-02-18T23:45:58.525Z,99486.84
2018-02-18T23:48:29.293Z,99484.83
2018-02-18T23:51:00.817Z,99483.46
2018-02-18T23:53:31.389Z,99484.56
2018-02-18T23:56:03.165Z,99486.87
2018-02-18T23:58:35.497Z,99489.53
